createdAt,value
2018-12-15T00:00:38.105Z,1019.4
2018-12-15T00:01:40.433Z,1019.4
2018-12-15T00:02:42.462Z,1019.5
2018-12-15T00:03:44.553Z,1019.4
2018-12-15T00:04:46.575Z,1019.4
2018-12-15T00:05:48.886Z,1019.4
2018-12-15T00:06:50.897Z,1019.4
2018-12-15T00:07:52.919Z,1019.4
2018-12-15T00:08:54.950Z,1019.5
2018-12-15T00:09:56.977Z,1019.4
2018-12-15T00:10:59.272Z,1019.5
2018-12-15T00:12:01.305Z,1019.5
2018-12-15T00:13:03.329Z,1019.5
2018-12-15T00:14:05.352Z,1019.5
2018-12-15T00:15:07.382Z,1019.5
2018-12-15T00:16:09.675Z,1019.6
2018-12-15T00:17:11.707Z,1019.6
2018-12-15T00:18:13.733Z,1019.5
2018-12-15T00:19:15.762Z,1019.5
2018-12-15T00:20:17.785Z,1019.5
2018-12-15T00:21:20.101Z,1019.5
2018-12-15T00:22:22.123Z,1019.6
2018-12-15T00:23:24.425Z,1019.5
2018-12-15T00:24:26.465Z,1019.5
2018-12-15T00:25:28.482Z,1019.5
2018-12-15T00:26:30.792Z,1019.5
2018-12-15T00:27:33.086Z,1019.5
2018-12-15T00:28:35.121Z,1019.5
2018-12-15T00:29:37.807Z,1019.6
2018-12-15T00:30:40.108Z,1019.5
2018-12-15T00:31:42.134Z,1019.5
2018-12-15T00:32:44.181Z,1019.5
2018-12-15T00:33:46.195Z,1019.5
2018-12-15T00:34:48.218Z,1019.5
2018-12-15T00:35:50.249Z,1019.5
2018-12-15T00:36:52.277Z,1019.5
2018-12-15T00:37:54.301Z,1019.5
2018-12-15T00:38:56.328Z,1019.5
2018-12-15T00:39:58.345Z,1019.5
2018-12-15T00:41:00.366Z,1019.5
2018-12-15T00:42:02.402Z,1019.5
2018-12-15T00:43:04.418Z,1019.6
2018-12-15T00:44:07.106Z,1019.5
2018-12-15T00:45:10.623Z,1019.6
2018-12-15T00:46:14.206Z,1019.5
2018-12-15T00:47:16.230Z,1019.6
2018-12-15T00:48:18.491Z,1019.6
2018-12-15T00:49:22.808Z,1019.6
2018-12-15T00:50:24.835Z,1019.5
2018-12-15T00:51:26.860Z,1019.5
2018-12-15T00:52:29.896Z,1019.5
2018-12-15T00:53:38.741Z,1019.5
2018-12-15T00:54:40.767Z,1019.6
2018-12-15T00:55:42.791Z,1019.6
2018-12-15T00:56:44.804Z,1019.6
2018-12-15T00:57:46.844Z,1019.6
2018-12-15T00:58:48.875Z,1019.6
2018-12-15T00:59:50.900Z,1019.6
2018-12-15T01:00:52.917Z,1019.6
2018-12-15T01:01:54.960Z,1019.6
2018-12-15T01:02:56.976Z,1019.6
2018-12-15T01:03:59.068Z,1019.6
2018-12-15T01:05:01.103Z,1019.6
2018-12-15T01:06:03.790Z,1019.6
2018-12-15T01:07:07.732Z,1019.6
2018-12-15T01:08:12.602Z,1019.6
2018-12-15T01:09:14.623Z,1019.6
2018-12-15T01:10:16.649Z,1019.6
2018-12-15T01:11:18.676Z,1019.6
2018-12-15T01:12:21.082Z,1019.6
2018-12-15T01:13:23.112Z,1019.6
2018-12-15T01:14:25.136Z,1019.7
2018-12-15T01:15:27.428Z,1019.6
2018-12-15T01:16:29.830Z,1019.7
2018-12-15T01:17:31.855Z,1019.6
2018-12-15T01:18:34.152Z,1019.7
2018-12-15T01:19:36.181Z,1019.6
2018-12-15T01:20:38.206Z,1019.6
2018-12-15T01:21:40.231Z,1019.6
2018-12-15T01:22:42.603Z,1019.7
2018-12-15T01:23:44.627Z,1019.7
2018-12-15T01:24:46.654Z,1019.7
2018-12-15T01:25:48.683Z,1019.7
2018-12-15T01:26:50.708Z,1019.7
2018-12-15T01:27:52.736Z,1019.7
2018-12-15T01:28:54.758Z,1019.7
2018-12-15T01:29:57.062Z,1019.7
2018-12-15T01:30:59.072Z,1019.7
2018-12-15T01:32:01.108Z,1019.7
2018-12-15T01:33:03.410Z,1019.7
2018-12-15T01:34:05.435Z,1019.7
2018-12-15T01:35:07.459Z,1019.8
2018-12-15T01:36:09.483Z,1019.8
2018-12-15T01:37:11.798Z,1019.8
2018-12-15T01:38:13.814Z,1019.8
2018-12-15T01:39:15.856Z,1019.8
2018-12-15T01:40:17.871Z,1019.8
2018-12-15T01:41:19.892Z,1019.7
2018-12-15T01:42:21.917Z,1019.8
2018-12-15T01:43:23.940Z,1019.7
2018-12-15T01:44:25.959Z,1019.7
2018-12-15T01:45:27.984Z,1019.8
2018-12-15T01:46:30.320Z,1019.8
2018-12-15T01:47:32.366Z,1019.8
2018-12-15T01:48:34.380Z,1019.7
2018-12-15T01:49:36.437Z,1019.8
2018-12-15T01:50:38.473Z,1019.8
2018-12-15T01:51:40.488Z,1019.8
2018-12-15T01:52:42.539Z,1019.8
2018-12-15T01:53:44.571Z,1019.8
2018-12-15T01:54:46.586Z,1019.7
2018-12-15T01:55:48.646Z,1019.8
2018-12-15T01:56:50.669Z,1019.7
2018-12-15T01:57:53.075Z,1019.8
2018-12-15T01:58:55.094Z,1019.7
2018-12-15T01:59:57.193Z,1019.7
2018-12-15T02:00:59.212Z,1019.8
2018-12-15T02:02:01.919Z,1019.7
2018-12-15T02:03:03.953Z,1019.8
2018-12-15T02:04:05.962Z,1019.7
2018-12-15T02:05:08.269Z,1019.7
2018-12-15T02:06:10.299Z,1019.7
2018-12-15T02:07:12.322Z,1019.7
2018-12-15T02:08:14.334Z,1019.7
2018-12-15T02:09:16.363Z,1019.7
2018-12-15T02:10:18.380Z,1019.6
2018-12-15T02:11:20.978Z,1019.6
2018-12-15T02:12:23.022Z,1019.7
2018-12-15T02:13:25.334Z,1019.6
2018-12-15T02:14:27.360Z,1019.6
2018-12-15T02:15:29.393Z,1019.7
2018-12-15T02:16:31.416Z,1019.7
2018-12-15T02:17:34.049Z,1019.7
2018-12-15T02:18:36.148Z,1019.7
2018-12-15T02:19:38.160Z,1019.7
2018-12-15T02:20:40.180Z,1019.7
2018-12-15T02:21:42.209Z,1019.7
2018-12-15T02:22:44.230Z,1019.7
2018-12-15T02:23:46.254Z,1019.7
2018-12-15T02:24:48.266Z,1019.8
2018-12-15T02:25:50.287Z,1019.7
2018-12-15T02:26:52.309Z,1019.7
2018-12-15T02:27:54.321Z,1019.7
2018-12-15T02:28:56.359Z,1019.8
2018-12-15T02:29:58.379Z,1019.7
2018-12-15T02:31:00.403Z,1019.7
2018-12-15T02:32:02.725Z,1019.7
2018-12-15T02:33:04.755Z,1019.7
2018-12-15T02:34:06.771Z,1019.7
2018-12-15T02:35:08.797Z,1019.7
2018-12-15T02:36:10.839Z,1019.7
2018-12-15T02:37:13.145Z,1019.7
2018-12-15T02:38:15.177Z,1019.7
2018-12-15T02:39:17.205Z,1019.7
2018-12-15T02:40:19.235Z,1019.7
2018-12-15T02:41:21.541Z,1019.7
2018-12-15T02:42:23.857Z,1019.7
2018-12-15T02:43:25.878Z,1019.7
2018-12-15T02:44:27.892Z,1019.7
2018-12-15T02:45:30.318Z,1019.7
2018-12-15T02:46:32.352Z,1019.8
2018-12-15T02:47:42.106Z,1019.8
2018-12-15T02:48:44.178Z,1019.8
2018-12-15T02:49:46.496Z,1019.7
2018-12-15T02:50:48.515Z,1019.8
2018-12-15T02:51:50.543Z,1019.8
2018-12-15T02:52:52.559Z,1019.8
2018-12-15T02:53:54.588Z,1019.8
2018-12-15T02:54:56.901Z,1019.7
2018-12-15T02:55:58.986Z,1019.7
2018-12-15T02:57:01.022Z,1019.8
2018-12-15T02:58:03.412Z,1019.7
2018-12-15T02:59:05.737Z,1019.7
2018-12-15T03:00:07.808Z,1019.7
2018-12-15T03:01:09.831Z,1019.7
2018-12-15T03:02:12.151Z,1019.7
2018-12-15T03:03:14.170Z,1019.7
2018-12-15T03:04:16.201Z,1019.7
2018-12-15T03:05:18.250Z,1019.7
2018-12-15T03:06:20.289Z,1019.7
2018-12-15T03:07:22.313Z,1019.7
2018-12-15T03:08:24.344Z,1019.7
2018-12-15T03:09:26.476Z,1019.7
2018-12-15T03:10:28.487Z,1019.7
2018-12-15T03:11:30.806Z,1019.7
2018-12-15T03:12:33.393Z,1019.7
2018-12-15T03:13:35.418Z,1019.7
2018-12-15T03:14:37.817Z,1019.7
2018-12-15T03:15:39.850Z,1019.7
2018-12-15T03:16:41.867Z,1019.7
2018-12-15T03:17:49.241Z,1019.7
2018-12-15T03:18:51.605Z,1019.7
2018-12-15T03:19:53.925Z,1019.7
2018-12-15T03:20:56.249Z,1019.7
2018-12-15T03:21:58.276Z,1019.7
2018-12-15T03:23:00.757Z,1019.7
2018-12-15T03:24:02.771Z,1019.7
2018-12-15T03:25:05.452Z,1019.7
2018-12-15T03:26:07.475Z,1019.7
2018-12-15T03:27:09.497Z,1019.8
2018-12-15T03:28:11.537Z,1019.8
2018-12-15T03:29:13.853Z,1019.7
2018-12-15T03:30:16.455Z,1019.8
2018-12-15T03:31:19.201Z,1019.8
2018-12-15T03:32:21.238Z,1019.8
2018-12-15T03:33:24.231Z,1019.7
2018-12-15T03:34:26.264Z,1019.8
2018-12-15T03:35:28.271Z,1019.8
2018-12-15T03:36:30.583Z,1019.8
2018-12-15T03:37:33.183Z,1019.8
2018-12-15T03:38:35.500Z,1019.8
2018-12-15T03:39:37.534Z,1019.8
2018-12-15T03:40:39.579Z,1019.8
2018-12-15T03:41:41.607Z,1019.8
2018-12-15T03:42:44.004Z,1019.9
2018-12-15T03:43:46.051Z,1019.8
2018-12-15T03:44:48.074Z,1019.9
2018-12-15T03:45:50.385Z,1019.9
2018-12-15T03:46:52.708Z,1019.8
2018-12-15T03:47:56.661Z,1019.8
2018-12-15T03:48:59.000Z,1019.8
2018-12-15T03:50:01.340Z,1019.8
2018-12-15T03:51:03.697Z,1019.8
2018-12-15T03:52:06.098Z,1019.8
2018-12-15T03:53:08.125Z,1019.8
2018-12-15T03:54:10.151Z,1019.8
2018-12-15T03:55:12.165Z,1019.9
2018-12-15T03:56:14.192Z,1019.8
2018-12-15T03:57:16.669Z,1019.8
2018-12-15T03:58:19.267Z,1019.8
2018-12-15T03:59:21.620Z,1019.8
2018-12-15T04:00:24.310Z,1019.8
2018-12-15T04:01:26.330Z,1019.9
2018-12-15T04:02:28.362Z,1019.8
2018-12-15T04:03:30.393Z,1019.8
2018-12-15T04:04:32.403Z,1019.8
2018-12-15T04:05:34.890Z,1019.8
2018-12-15T04:06:36.934Z,1019.8
2018-12-15T04:07:39.238Z,1019.8
2018-12-15T04:08:41.283Z,1019.8
2018-12-15T04:09:43.593Z,1019.8
2018-12-15T04:10:45.902Z,1019.9
2018-12-15T04:11:48.226Z,1019.9
2018-12-15T04:12:50.264Z,1019.8
2018-12-15T04:13:52.286Z,1019.9
2018-12-15T04:14:54.312Z,1019.9
2018-12-15T04:15:56.657Z,1019.8
2018-12-15T04:16:58.682Z,1019.8
2018-12-15T04:18:04.088Z,1019.8
2018-12-15T04:19:06.395Z,1019.8
2018-12-15T04:20:08.422Z,1019.8
2018-12-15T04:21:10.743Z,1019.8
2018-12-15T04:22:13.182Z,1019.8
2018-12-15T04:23:15.220Z,1019.8
2018-12-15T04:24:17.282Z,1019.8
2018-12-15T04:25:19.288Z,1019.9
2018-12-15T04:26:21.321Z,1019.9
2018-12-15T04:27:23.335Z,1019.9
2018-12-15T04:28:25.355Z,1019.8
2018-12-15T04:29:27.661Z,1019.8
2018-12-15T04:30:29.978Z,1019.8
2018-12-15T04:31:31.997Z,1019.9
2018-12-15T04:32:34.038Z,1019.9
2018-12-15T04:33:36.461Z,1019.9
2018-12-15T04:34:38.489Z,1019.8
2018-12-15T04:35:40.517Z,1019.8
2018-12-15T04:36:42.544Z,1019.8
2018-12-15T04:37:44.562Z,1019.9
2018-12-15T04:38:46.607Z,1019.9
2018-12-15T04:39:48.634Z,1019.9
2018-12-15T04:40:51.034Z,1019.9
2018-12-15T04:41:53.386Z,1019.9
2018-12-15T04:42:55.716Z,1019.9
2018-12-15T04:43:57.745Z,1019.9
2018-12-15T04:45:00.343Z,1019.9
2018-12-15T04:46:02.374Z,1019.9
2018-12-15T04:47:04.776Z,1019.9
2018-12-15T04:48:11.612Z,1019.9
2018-12-15T04:49:13.728Z,1019.8
2018-12-15T04:50:16.014Z,1019.8
2018-12-15T04:51:18.729Z,1019.8
2018-12-15T04:52:20.756Z,1019.8
2018-12-15T04:53:22.883Z,1019.8
2018-12-15T04:54:25.174Z,1019.8
2018-12-15T04:55:27.206Z,1019.8
2018-12-15T04:56:29.229Z,1019.8
2018-12-15T04:57:31.699Z,1019.8
2018-12-15T04:58:34.006Z,1019.8
2018-12-15T04:59:36.038Z,1019.8
2018-12-15T05:00:38.060Z,1019.8
2018-12-15T05:01:40.073Z,1019.8
2018-12-15T05:02:44.349Z,1019.8
2018-12-15T05:03:46.396Z,1019.9
2018-12-15T05:04:48.771Z,1019.9
2018-12-15T05:05:50.874Z,1019.8
2018-12-15T05:06:52.900Z,1019.9
2018-12-15T05:07:54.918Z,1019.9
2018-12-15T05:08:56.957Z,1019.9
2018-12-15T05:09:59.666Z,1019.9
2018-12-15T05:11:01.712Z,1019.9
2018-12-15T05:12:03.743Z,1019.9
2018-12-15T05:13:06.071Z,1019.9
2018-12-15T05:14:08.083Z,1019.9
2018-12-15T05:15:10.884Z,1019.9
2018-12-15T05:16:12.897Z,1019.9
2018-12-15T05:17:14.928Z,1019.9
2018-12-15T05:18:18.690Z,1019.9
2018-12-15T05:19:21.342Z,1019.9
2018-12-15T05:20:23.363Z,1019.8
2018-12-15T05:21:25.440Z,1019.8
2018-12-15T05:22:27.489Z,1019.8
2018-12-15T05:23:29.497Z,1019.9
2018-12-15T05:24:31.529Z,1019.9
2018-12-15T05:25:33.847Z,1019.9
2018-12-15T05:26:35.879Z,1019.9
2018-12-15T05:27:37.894Z,1019.9
2018-12-15T05:28:39.923Z,1019.9
2018-12-15T05:29:41.939Z,1020
2018-12-15T05:30:43.967Z,1019.9
2018-12-15T05:31:46.002Z,1020
2018-12-15T05:32:48.025Z,1020
2018-12-15T05:33:50.442Z,1020
2018-12-15T05:34:52.458Z,1019.9
2018-12-15T05:35:54.484Z,1020
2018-12-15T05:36:56.802Z,1020
2018-12-15T05:37:59.770Z,1019.9
2018-12-15T05:39:01.820Z,1019.9
2018-12-15T05:40:03.853Z,1020
2018-12-15T05:41:05.865Z,1020
2018-12-15T05:42:08.271Z,1019.9
2018-12-15T05:43:10.300Z,1020
2018-12-15T05:44:12.315Z,1020
2018-12-15T05:45:14.340Z,1020
2018-12-15T05:46:16.415Z,1020
2018-12-15T05:47:18.429Z,1020
2018-12-15T05:48:25.647Z,1020
2018-12-15T05:49:27.955Z,1020
2018-12-15T05:50:29.978Z,1020
2018-12-15T05:51:31.992Z,1020
2018-12-15T05:52:34.025Z,1020.1
2018-12-15T05:53:36.040Z,1020.1
2018-12-15T05:54:38.064Z,1020.1
2018-12-15T05:55:40.092Z,1020.1
2018-12-15T05:56:42.114Z,1020.1
2018-12-15T05:57:44.144Z,1020.1
2018-12-15T05:58:46.170Z,1020.1
2018-12-15T05:59:48.194Z,1020.1
2018-12-15T06:00:50.253Z,1020.1
2018-12-15T06:01:52.286Z,1020.1
2018-12-15T06:02:54.595Z,1020.1
2018-12-15T06:03:56.619Z,1020.1
2018-12-15T06:04:58.661Z,1020.1
2018-12-15T06:06:00.669Z,1020.1
2018-12-15T06:07:02.973Z,1020.1
2018-12-15T06:08:04.996Z,1020.1
2018-12-15T06:09:07.302Z,1020.1
2018-12-15T06:10:09.316Z,1020.1
2018-12-15T06:11:11.628Z,1020.1
2018-12-15T06:12:13.643Z,1020.1
2018-12-15T06:13:15.670Z,1020.1
2018-12-15T06:14:17.705Z,1020.1
2018-12-15T06:15:19.735Z,1020.1
2018-12-15T06:16:21.751Z,1020.1
2018-12-15T06:17:23.780Z,1020.1
2018-12-15T06:18:31.978Z,1020.1
2018-12-15T06:19:34.010Z,1020.1
2018-12-15T06:20:36.043Z,1020.1
2018-12-15T06:21:38.052Z,1020.1
2018-12-15T06:22:40.079Z,1020.1
2018-12-15T06:23:42.101Z,1020.2
2018-12-15T06:24:44.133Z,1020.1
2018-12-15T06:25:46.162Z,1020.2
2018-12-15T06:26:48.188Z,1020.2
2018-12-15T06:27:50.211Z,1020.2
2018-12-15T06:28:52.224Z,1020.2
2018-12-15T06:29:55.195Z,1020.2
2018-12-15T06:30:57.214Z,1020.2
2018-12-15T06:31:59.235Z,1020.2
2018-12-15T06:33:01.258Z,1020.2
2018-12-15T06:34:03.572Z,1020.2
2018-12-15T06:35:05.587Z,1020.2
2018-12-15T06:36:07.610Z,1020.3
2018-12-15T06:37:09.637Z,1020.2
2018-12-15T06:38:11.647Z,1020.3
2018-12-15T06:39:13.671Z,1020.3
2018-12-15T06:40:15.691Z,1020.3
2018-12-15T06:41:17.712Z,1020.3
2018-12-15T06:42:20.014Z,1020.2
2018-12-15T06:43:22.085Z,1020.2
2018-12-15T06:44:24.107Z,1020.2
2018-12-15T06:45:26.521Z,1020.3
2018-12-15T06:46:28.543Z,1020.2
2018-12-15T06:47:30.555Z,1020.2
2018-12-15T06:48:38.424Z,1020.2
2018-12-15T06:49:40.728Z,1020.2
2018-12-15T06:50:42.762Z,1020.2
2018-12-15T06:51:44.780Z,1020.2
2018-12-15T06:52:46.801Z,1020.3
2018-12-15T06:53:48.832Z,1020.2
2018-12-15T06:54:50.840Z,1020.2
2018-12-15T06:55:52.934Z,1020.2
2018-12-15T06:56:54.960Z,1020.2
2018-12-15T06:57:56.998Z,1020.2
2018-12-15T06:58:59.063Z,1020.2
2018-12-15T07:00:01.120Z,1020.2
2018-12-15T07:01:03.147Z,1020.3
2018-12-15T07:02:05.469Z,1020.2
2018-12-15T07:03:07.554Z,1020.3
2018-12-15T07:04:09.567Z,1020.3
2018-12-15T07:05:11.594Z,1020.2
2018-12-15T07:06:13.643Z,1020.2
2018-12-15T07:07:15.671Z,1020.2
2018-12-15T07:08:17.689Z,1020.2
2018-12-15T07:09:19.719Z,1020.2
2018-12-15T07:10:21.751Z,1020.3
2018-12-15T07:11:23.817Z,1020.2
2018-12-15T07:12:25.842Z,1020.2
2018-12-15T07:13:27.921Z,1020.3
2018-12-15T07:14:29.938Z,1020.3
2018-12-15T07:15:31.963Z,1020.3
2018-12-15T07:16:33.987Z,1020.3
2018-12-15T07:17:37.586Z,1020.3
2018-12-15T07:18:45.136Z,1020.3
2018-12-15T07:19:47.158Z,1020.3
2018-12-15T07:20:49.563Z,1020.3
2018-12-15T07:21:51.639Z,1020.3
2018-12-15T07:22:53.944Z,1020.3
2018-12-15T07:23:55.962Z,1020.3
2018-12-15T07:24:58.009Z,1020.3
2018-12-15T07:26:00.110Z,1020.3
2018-12-15T07:27:02.140Z,1020.3
2018-12-15T07:28:04.433Z,1020.3
2018-12-15T07:29:07.029Z,1020.4
2018-12-15T07:30:09.049Z,1020.4
2018-12-15T07:31:11.076Z,1020.3
2018-12-15T07:32:13.370Z,1020.3
2018-12-15T07:33:15.400Z,1020.3
2018-12-15T07:34:17.429Z,1020.3
2018-12-15T07:35:19.729Z,1020.3
2018-12-15T07:36:21.760Z,1020.3
2018-12-15T07:37:23.773Z,1020.3
2018-12-15T07:38:25.801Z,1020.3
2018-12-15T07:39:28.824Z,1020.3
2018-12-15T07:40:30.857Z,1020.3
2018-12-15T07:41:32.877Z,1020.3
2018-12-15T07:42:34.902Z,1020.3
2018-12-15T07:43:37.324Z,1020.3
2018-12-15T07:44:39.329Z,1020.3
2018-12-15T07:45:41.355Z,1020.3
2018-12-15T07:46:43.665Z,1020.3
2018-12-15T07:47:45.760Z,1020.3
2018-12-15T07:48:51.778Z,1020.4
2018-12-15T07:49:54.098Z,1020.4
2018-12-15T07:50:56.145Z,1020.3
2018-12-15T07:51:58.465Z,1020.3
2018-12-15T07:53:00.540Z,1020.4
2018-12-15T07:54:02.559Z,1020.3
2018-12-15T07:55:04.579Z,1020.3
2018-12-15T07:56:06.603Z,1020.3
2018-12-15T07:57:08.613Z,1020.3
2018-12-15T07:58:10.635Z,1020.3
2018-12-15T07:59:12.658Z,1020.3
2018-12-15T08:00:14.672Z,1020.3
2018-12-15T08:01:16.710Z,1020.3
2018-12-15T08:02:18.744Z,1020.3
2018-12-15T08:03:21.057Z,1020.3
2018-12-15T08:04:23.072Z,1020.3
2018-12-15T08:05:25.097Z,1020.3
2018-12-15T08:06:27.130Z,1020.3
2018-12-15T08:07:29.538Z,1020.3
2018-12-15T08:08:31.553Z,1020.3
2018-12-15T08:09:33.595Z,1020.4
2018-12-15T08:10:35.609Z,1020.3
2018-12-15T08:11:37.915Z,1020.3
2018-12-15T08:12:39.932Z,1020.3
2018-12-15T08:13:41.960Z,1020.3
2018-12-15T08:14:44.270Z,1020.3
2018-12-15T08:15:46.303Z,1020.3
2018-12-15T08:16:48.353Z,1020.3
2018-12-15T08:17:50.648Z,1020.3
2018-12-15T08:18:58.311Z,1020.3
2018-12-15T08:20:00.340Z,1020.3
2018-12-15T08:21:02.360Z,1020.3
2018-12-15T08:22:04.379Z,1020.3
2018-12-15T08:23:06.421Z,1020.3
2018-12-15T08:24:08.442Z,1020.4
2018-12-15T08:25:10.491Z,1020.3
2018-12-15T08:26:12.516Z,1020.3
2018-12-15T08:27:14.533Z,1020.3
2018-12-15T08:28:16.559Z,1020.3
2018-12-15T08:29:18.587Z,1020.3
2018-12-15T08:30:20.603Z,1020.4
2018-12-15T08:31:22.633Z,1020.4
2018-12-15T08:32:24.977Z,1020.4
2018-12-15T08:33:26.987Z,1020.4
2018-12-15T08:34:29.032Z,1020.4
2018-12-15T08:35:31.058Z,1020.5
2018-12-15T08:36:33.084Z,1020.5
2018-12-15T08:37:35.100Z,1020.4
2018-12-15T08:38:37.406Z,1020.4
2018-12-15T08:39:39.424Z,1020.5
2018-12-15T08:40:41.507Z,1020.5
2018-12-15T08:41:45.108Z,1020.5
2018-12-15T08:42:47.131Z,1020.5
2018-12-15T08:43:49.158Z,1020.5
2018-12-15T08:44:51.560Z,1020.5
2018-12-15T08:45:53.581Z,1020.5
2018-12-15T08:46:55.601Z,1020.5
2018-12-15T08:47:57.633Z,1020.5
2018-12-15T08:49:04.952Z,1020.5
2018-12-15T08:50:06.975Z,1020.5
2018-12-15T08:51:09.402Z,1020.5
2018-12-15T08:52:11.419Z,1020.5
2018-12-15T08:53:13.454Z,1020.4
2018-12-15T08:54:15.481Z,1020.5
2018-12-15T08:55:17.595Z,1020.4
2018-12-15T08:56:19.644Z,1020.5
2018-12-15T08:57:21.954Z,1020.5
2018-12-15T08:58:23.969Z,1020.5
2018-12-15T08:59:25.995Z,1020.5
2018-12-15T09:00:28.023Z,1020.5
2018-12-15T09:01:30.325Z,1020.5
2018-12-15T09:02:32.343Z,1020.5
2018-12-15T09:03:34.369Z,1020.5
2018-12-15T09:04:36.394Z,1020.5
2018-12-15T09:05:38.412Z,1020.5
2018-12-15T09:06:40.498Z,1020.5
2018-12-15T09:07:42.510Z,1020.5
2018-12-15T09:08:44.533Z,1020.5
2018-12-15T09:09:46.840Z,1020.5
2018-12-15T09:10:49.143Z,1020.5
2018-12-15T09:11:51.158Z,1020.5
2018-12-15T09:12:53.191Z,1020.5
2018-12-15T09:13:55.210Z,1020.5
2018-12-15T09:14:57.221Z,1020.5
2018-12-15T09:15:59.537Z,1020.4
2018-12-15T09:17:01.561Z,1020.3
2018-12-15T09:18:03.863Z,1020.4
2018-12-15T09:19:11.620Z,1020.4
2018-12-15T09:20:13.978Z,1020.4
2018-12-15T09:21:16.008Z,1020.4
2018-12-15T09:22:18.028Z,1020.4
2018-12-15T09:23:20.070Z,1020.4
2018-12-15T09:24:34.842Z,1020.4
2018-12-15T09:25:36.864Z,1020.3
2018-12-15T09:26:38.901Z,1020.3
2018-12-15T09:27:40.929Z,1020.3
2018-12-15T09:28:42.950Z,1020.3
2018-12-15T09:29:44.969Z,1020.3
2018-12-15T09:30:47.384Z,1020.3
2018-12-15T09:31:49.408Z,1020.3
2018-12-15T09:32:51.714Z,1020.3
2018-12-15T09:33:53.781Z,1020.3
2018-12-15T09:34:55.802Z,1020.3
2018-12-15T09:35:57.823Z,1020.3
2018-12-15T09:36:59.855Z,1020.3
2018-12-15T09:38:01.891Z,1020.3
2018-12-15T09:39:03.916Z,1020.3
2018-12-15T09:40:05.951Z,1020.3
2018-12-15T09:41:07.959Z,1020.4
2018-12-15T09:42:09.993Z,1020.4
2018-12-15T09:43:12.048Z,1020.4
2018-12-15T09:44:14.092Z,1020.4
2018-12-15T09:45:16.111Z,1020.4
2018-12-15T09:46:18.153Z,1020.4
2018-12-15T09:47:20.183Z,1020.4
2018-12-15T09:48:22.201Z,1020.3
2018-12-15T09:49:24.241Z,1020.4
2018-12-15T09:50:26.272Z,1020.4
2018-12-15T09:51:28.299Z,1020.4
2018-12-15T09:52:30.325Z,1020.3
2018-12-15T09:53:32.420Z,1020.3
2018-12-15T09:54:34.438Z,1020.3
2018-12-15T09:55:36.473Z,1020.3
2018-12-15T09:56:38.516Z,1020.3
2018-12-15T09:57:40.531Z,1020.3
2018-12-15T09:58:42.564Z,1020.3
2018-12-15T09:59:44.596Z,1020.3
2018-12-15T10:00:46.637Z,1020.3
2018-12-15T10:01:49.234Z,1020.3
2018-12-15T10:02:51.255Z,1020.2
2018-12-15T10:03:53.601Z,1020.3
2018-12-15T10:04:57.477Z,1020.3
2018-12-15T10:05:59.530Z,1020.2
2018-12-15T10:07:01.567Z,1020.2
2018-12-15T10:08:03.596Z,1020.2
2018-12-15T10:09:05.624Z,1020.2
2018-12-15T10:10:07.670Z,1020.2
2018-12-15T10:11:10.528Z,1020.2
2018-12-15T10:12:14.518Z,1020.2
2018-12-15T10:13:20.725Z,1020.3
2018-12-15T10:14:23.298Z,1020.3
2018-12-15T10:15:25.348Z,1020.2
2018-12-15T10:16:27.442Z,1020.2
2018-12-15T10:17:29.486Z,1020.3
2018-12-15T10:18:32.083Z,1020.3
2018-12-15T10:19:36.053Z,1020.3
2018-12-15T10:20:42.004Z,1020.3
2018-12-15T10:21:44.031Z,1020.3
2018-12-15T10:22:46.070Z,1020.3
2018-12-15T10:23:48.086Z,1020.2
2018-12-15T10:24:51.749Z,1020.2
2018-12-15T10:25:58.464Z,1020.3
2018-12-15T10:27:05.057Z,1020.3
2018-12-15T10:28:14.439Z,1020.2
2018-12-15T10:29:21.639Z,1020.3
2018-12-15T10:30:27.974Z,1020.3
2018-12-15T10:31:35.655Z,1020.2
2018-12-15T10:32:43.405Z,1020.2
2018-12-15T10:33:50.355Z,1020.2
2018-12-15T10:34:54.023Z,1020.2
2018-12-15T10:35:56.050Z,1020.2
2018-12-15T10:36:58.086Z,1020.2
2018-12-15T10:38:00.113Z,1020.2
2018-12-15T10:39:02.410Z,1020.1
2018-12-15T10:40:04.437Z,1020.1
2018-12-15T10:41:07.138Z,1020.1
2018-12-15T10:42:09.161Z,1020.1
2018-12-15T10:43:11.200Z,1020
2018-12-15T10:44:13.245Z,1020
2018-12-15T10:45:15.270Z,1020
2018-12-15T10:46:17.288Z,1020
2018-12-15T10:47:19.347Z,1020
2018-12-15T10:48:21.723Z,1020
2018-12-15T10:49:31.012Z,1020
2018-12-15T10:50:33.042Z,1020
2018-12-15T10:51:35.138Z,1019.9
2018-12-15T10:52:37.298Z,1019.9
2018-12-15T10:53:39.618Z,1019.9
2018-12-15T10:54:41.707Z,1019.9
2018-12-15T10:55:43.724Z,1019.9
2018-12-15T10:56:45.765Z,1019.9
2018-12-15T10:57:47.785Z,1019.8
2018-12-15T10:58:50.201Z,1019.9
2018-12-15T10:59:52.227Z,1019.8
2018-12-15T11:00:54.382Z,1019.8
2018-12-15T11:01:56.416Z,1019.9
2018-12-15T11:02:58.464Z,1019.9
2018-12-15T11:04:01.187Z,1019.9
2018-12-15T11:05:03.509Z,1019.9
2018-12-15T11:06:06.100Z,1019.9
2018-12-15T11:07:10.139Z,1019.9
2018-12-15T11:08:18.888Z,1019.9
2018-12-15T11:09:21.457Z,1019.9
2018-12-15T11:10:24.673Z,1019.8
2018-12-15T11:11:30.100Z,1019.8
2018-12-15T11:12:39.433Z,1019.8
2018-12-15T11:13:45.789Z,1019.8
2018-12-15T11:14:48.717Z,1019.8
2018-12-15T11:15:57.143Z,1019.8
2018-12-15T11:16:59.192Z,1019.8
2018-12-15T11:18:02.952Z,1019.8
2018-12-15T11:19:09.880Z,1019.8
2018-12-15T11:20:13.376Z,1019.8
2018-12-15T11:21:16.059Z,1019.8
2018-12-15T11:22:19.363Z,1019.8
2018-12-15T11:23:21.422Z,1019.8
2018-12-15T11:24:23.450Z,1019.8
2018-12-15T11:25:25.472Z,1019.7
2018-12-15T11:26:27.515Z,1019.7
2018-12-15T11:27:29.875Z,1019.7
2018-12-15T11:28:31.901Z,1019.7
2018-12-15T11:29:33.939Z,1019.7
2018-12-15T11:30:36.227Z,1019.7
2018-12-15T11:31:38.259Z,1019.7
2018-12-15T11:32:40.282Z,1019.6
2018-12-15T11:33:42.310Z,1019.6
2018-12-15T11:34:44.326Z,1019.6
2018-12-15T11:35:46.423Z,1019.6
2018-12-15T11:36:48.443Z,1019.5
2018-12-15T11:37:50.461Z,1019.6
2018-12-15T11:38:52.495Z,1019.5
2018-12-15T11:39:55.494Z,1019.6
2018-12-15T11:40:57.520Z,1019.5
2018-12-15T11:41:59.606Z,1019.5
2018-12-15T11:43:01.650Z,1019.5
2018-12-15T11:44:03.944Z,1019.5
2018-12-15T11:45:05.978Z,1019.5
2018-12-15T11:46:07.988Z,1019.5
2018-12-15T11:47:10.011Z,1019.5
2018-12-15T11:48:13.629Z,1019.5
2018-12-15T11:49:15.656Z,1019.5
2018-12-15T11:50:17.675Z,1019.5
2018-12-15T11:51:19.732Z,1019.5
2018-12-15T11:52:22.313Z,1019.5
2018-12-15T11:53:24.340Z,1019.5
2018-12-15T11:54:26.356Z,1019.5
2018-12-15T11:55:28.772Z,1019.5
2018-12-15T11:56:30.789Z,1019.4
2018-12-15T11:57:32.807Z,1019.5
2018-12-15T11:58:34.819Z,1019.4
2018-12-15T11:59:36.862Z,1019.4
2018-12-15T12:00:38.877Z,1019.4
2018-12-15T12:01:41.284Z,1019.4
2018-12-15T12:02:43.315Z,1019.4
2018-12-15T12:03:45.328Z,1019.4
2018-12-15T12:04:47.363Z,1019.4
2018-12-15T12:05:49.387Z,1019.4
2018-12-15T12:06:51.468Z,1019.4
2018-12-15T12:07:53.868Z,1019.4
2018-12-15T12:08:55.947Z,1019.4
2018-12-15T12:09:57.964Z,1019.4
2018-12-15T12:10:59.977Z,1019.4
2018-12-15T12:12:02.010Z,1019.3
2018-12-15T12:13:04.033Z,1019.3
2018-12-15T12:14:06.113Z,1019.3
2018-12-15T12:15:08.161Z,1019.3
2018-12-15T12:16:10.191Z,1019.3
2018-12-15T12:17:12.204Z,1019.3
2018-12-15T12:18:14.228Z,1019.3
2018-12-15T12:19:16.237Z,1019.3
2018-12-15T12:20:18.315Z,1019.3
2018-12-15T12:21:20.347Z,1019.3
2018-12-15T12:22:22.371Z,1019.2
2018-12-15T12:23:24.391Z,1019.3
2018-12-15T12:24:26.422Z,1019.3
2018-12-15T12:25:28.442Z,1019.3
2018-12-15T12:26:30.459Z,1019.2
2018-12-15T12:27:32.496Z,1019.3
2018-12-15T12:28:34.509Z,1019.3
2018-12-15T12:29:36.920Z,1019.3
2018-12-15T12:30:38.945Z,1019.3
2018-12-15T12:31:40.969Z,1019.2
2018-12-15T12:32:43.058Z,1019.2
2018-12-15T12:33:45.081Z,1019.2
2018-12-15T12:34:47.109Z,1019.2
2018-12-15T12:35:49.145Z,1019.1
2018-12-15T12:36:51.155Z,1019.1
2018-12-15T12:37:53.866Z,1019.1
2018-12-15T12:38:55.885Z,1019.2
2018-12-15T12:39:57.912Z,1019.1
2018-12-15T12:40:59.954Z,1019.1
2018-12-15T12:42:01.981Z,1019.1
2018-12-15T12:43:03.997Z,1019.1
2018-12-15T12:44:06.050Z,1019.1
2018-12-15T12:45:08.083Z,1019.1
2018-12-15T12:46:10.111Z,1019.1
2018-12-15T12:47:12.426Z,1019.1
2018-12-15T12:48:14.736Z,1019
2018-12-15T12:49:16.759Z,1019
2018-12-15T12:50:18.783Z,1019.1
2018-12-15T12:51:20.815Z,1019
2018-12-15T12:52:23.219Z,1019
2018-12-15T12:53:25.242Z,1019
2018-12-15T12:54:27.274Z,1019
2018-12-15T12:55:29.294Z,1019
2018-12-15T12:56:31.314Z,1019.1
2018-12-15T12:57:33.350Z,1019.1
2018-12-15T12:58:35.373Z,1019
2018-12-15T12:59:37.388Z,1019.1
2018-12-15T13:00:39.437Z,1019.1